Time;durP1;ratioP1;P1;durP2;ratioP2;P2;SDS_P1;SDS_P2;PMS_P1;PMS_P2;Temp;Humidity;BMP_temperature;BMP_pressure;BME280_temperature;BME280_humidity;BME280_pressure;Samples;Min_cycle;Max_cycle;Signal;HPM_P1;HPM_P2
2022/10/01 00:01:58;;;;;;;4.77;4.23;;;;;;;7.24;96.33;95275.22;4961503;28;20182;-80
2022/10/01 00:04:25;;;;;;;5.57;4.53;;;;;;;7.23;96.71;95283.91;4956381;28;20675;-80
2022/10/01 00:06:50;;;;;;;4.67;3.97;;;;;;;7.23;96.53;95277.94;4953059;28;20210;-80
2022/10/01 00:09:15;;;;;;;5.97;4.60;;;;;;;7.25;96.30;95273.47;4951946;28;20788;-80
2022/10/01 00:11:40;;;;;;;6.17;4.50;;;;;;;7.26;96.22;95269.94;4938474;29;20190;-81
2022/10/01 00:14:07;;;;;;;5.57;4.43;;;;;;;7.27;96.59;95269.78;4957629;28;20217;-81
2022/10/01 00:16:32;;;;;;;5.33;4.80;;;;;;;7.45;96.02;95269.94;4959022;28;20638;-80
2022/10/01 00:18:59;;;;;;;5.63;5.13;;;;;;;7.54;95.45;95261.38;4962629;28;20193;-81
2022/10/01 00:21:30;;;;;;;6.23;5.30;;;;;;;7.67;96.72;95268.84;4957600;28;20177;-80
2022/10/01 00:23:57;;;;;;;5.37;4.87;;;;;;;7.84;95.53;95263.00;4953670;28;20191;-80
2022/10/01 00:26:25;;;;;;;6.20;5.60;;;;;;;7.82;94.96;95253.75;4949353;29;20209;-80
2022/10/01 00:29:00;;;;;;;6.73;5.27;;;;;;;7.80;94.99;95268.59;4945920;29;20181;-81
2022/10/01 00:31:26;;;;;;;8.30;6.10;;;;;;;7.78;95.66;95270.50;4959312;28;20180;-81
2022/10/01 00:33:52;;;;;;;6.20;5.60;;;;;;;7.80;95.10;95278.94;4955530;28;20581;-79
2022/10/01 00:36:18;;;;;;;6.60;5.33;;;;;;;7.84;95.21;95272.50;4955869;28;20335;-81
2022/10/01 00:38:44;;;;;;;6.60;5.10;;;;;;;7.66;95.63;95267.22;4951882;29;20241;-80
2022/10/01 00:41:10;;;;;;;5.90;5.23;;;;;;;7.49;96.57;95279.03;4949629;28;20181;-80
2022/10/01 00:43:38;;;;;;;5.10;4.60;;;;;;;7.51;96.73;95274.59;4961744;28;20251;-80
2022/10/01 00:46:18;;;;;;;10.40;5.30;;;;;;;7.40;97.82;95285.03;4942273;28;20683;-81
2022/10/01 00:48:51;;;;;;;6.73;5.40;;;;;;;7.43;97.40;95279.59;4933789;29;20204;-80
2022/10/01 00:51:17;;;;;;;6.67;5.63;;;;;;;7.36;97.31;95279.31;4950860;29;20268;-81
2022/10/01 00:53:43;;;;;;;6.57;5.70;;;;;;;7.37;97.35;95272.38;4950128;29;20774;-80
2022/10/01 00:56:09;;;;;;;5.90;5.30;;;;;;;7.35;97.58;95277.69;4963927;28;20196;-80
2022/10/01 00:58:34;;;;;;;5.63;5.10;;;;;;;7.30;97.72;95277.25;4965064;28;20193;-80
2022/10/01 01:00:59;;;;;;;6.03;5.00;;;;;;;7.29;97.26;95275.63;4948931;28;20186;-80
2022/10/01 01:03:25;;;;;;;5.87;5.37;;;;;;;7.27;97.49;95272.38;4945485;29;20190;-80
2022/10/01 01:05:50;;;;;;;5.43;4.93;;;;;;;7.27;97.40;95266.41;4942708;29;20194;-80
2022/10/01 01:08:16;;;;;;;5.40;4.90;;;;;;;7.32;96.46;95277.13;4970904;28;20212;-81
2022/10/01 01:10:49;;;;;;;8.37;5.50;;;;;;;7.19;96.76;95263.66;4974405;28;20260;-81
2022/10/01 01:13:28;;;;;;;6.57;4.97;;;;;;;7.19;97.37;95256.72;4969826;28;20284;-81
2022/10/01 01:16:04;;;;;;;5.83;4.80;;;;;;;7.16;97.59;95253.63;4934221;29;20246;-81
2022/10/01 01:18:44;;;;;;;7.00;4.73;;;;;;;7.20;97.84;95245.44;4954386;29;20193;-81
2022/10/01 01:21:24;;;;;;;7.00;4.50;;;;;;;7.26;98.15;95251.84;4957990;28;20192;-80
2022/10/01 01:24:02;;;;;;;5.17;4.37;;;;;;;7.31;98.64;95252.25;4946593;29;20178;-81
2022/10/01 01:26:39;;;;;;;4.87;4.13;;;;;;;7.35;98.40;95251.88;4959906;28;20209;-82
2022/10/01 01:29:11;;;;;;;4.80;4.07;;;;;;;7.37;98.28;95249.13;4934889;29;20209;-81
2022/10/01 01:31:40;;;;;;;5.57;4.47;;;;;;;7.38;97.57;95235.25;4964480;28;20190;-81
2022/10/01 01:34:11;;;;;;;5.47;4.43;;;;;;;7.41;97.48;95232.41;4944529;29;20190;-81
2022/10/01 01:36:37;;;;;;;5.83;4.60;;;;;;;7.37;96.80;95228.47;4957079;28;20295;-81
2022/10/01 01:39:04;;;;;;;7.50;4.53;;;;;;;7.35;97.87;95230.38;4956949;28;20256;-80
2022/10/01 01:41:33;;;;;;;4.57;4.07;;;;;;;7.33;97.34;95229.69;4960678;28;20679;-81
2022/10/01 01:44:01;;;;;;;4.87;4.47;;;;;;;7.26;97.23;95224.25;4963636;28;20581;-81
2022/10/01 01:46:32;;;;;;;4.63;4.23;;;;;;;7.24;97.24;95225.31;4966143;28;20279;-81
2022/10/01 01:48:58;;;;;;;5.40;4.37;;;;;;;7.23;97.75;95208.19;4969850;28;20238;-81
2022/10/01 01:51:44;;;;;;;4.97;4.53;;;;;;;7.19;97.76;95202.50;4973538;28;20626;-80
2022/10/01 01:54:10;;;;;;;6.00;4.73;;;;;;;7.18;97.52;95195.72;4939980;29;20193;-81
2022/10/01 01:56:35;;;;;;;5.50;4.90;;;;;;;7.21;97.52;95194.59;4953386;28;20232;-81
2022/10/01 01:59:02;;;;;;;5.57;5.03;;;;;;;7.18;97.54;95192.31;4934021;29;20193;-81
2022/10/01 02:01:40;;;;;;;4.53;4.03;;;;;;;7.22;97.89;95191.06;4963109;28;20283;-80
2022/10/01 02:04:16;;;;;;;4.97;4.50;;;;;;;7.23;97.79;95185.78;4946055;29;20612;-81
2022/10/01 02:06:52;;;;;;;4.77;4.37;;;;;;;7.21;98.02;95190.25;4955608;28;20213;-81
2022/10/01 02:09:34;;;;;;;6.97;4.47;;;;;;;7.18;97.98;95185.38;4935953;29;20193;-81
2022/10/01 02:12:23;;;;;;;5.87;4.70;;;;;;;7.23;98.02;95187.53;4943131;29;20206;-81
2022/10/01 02:14:56;;;;;;;5.70;5.07;;;;;;;7.23;98.00;95179.78;4946451;29;20193;-80
2022/10/01 02:17:31;;;;;;;4.50;3.93;;;;;;;7.20;97.33;95186.06;4932218;29;20284;-80
2022/10/01 02:20:02;;;;;;;6.63;4.30;;;;;;;7.17;97.46;95177.78;4950800;28;20192;-81
2022/10/01 02:22:35;;;;;;;5.07;4.57;;;;;;;7.16;98.16;95181.31;4954042;29;20189;-81
2022/10/01 02:25:04;;;;;;;4.77;4.37;;;;;;;7.25;98.03;95185.66;4934265;29;20233;-80
2022/10/01 02:27:36;;;;;;;4.57;4.17;;;;;;;7.26;97.77;95184.72;4957570;28;20213;-81
2022/10/01 02:30:06;;;;;;;4.27;3.67;;;;;;;7.24;98.62;95179.66;4945736;29;20212;-80
2022/10/01 02:32:33;;;;;;;4.10;3.53;;;;;;;7.32;97.88;95176.38;4948351;28;20292;-81
2022/10/01 02:34:58;;;;;;;4.70;3.97;;;;;;;7.34;97.13;95172.75;4960860;28;20683;-80
2022/10/01 02:37:25;;;;;;;4.70;3.70;;;;;;;7.39;97.00;95152.47;4937329;29;20213;-80
2022/10/01 02:39:51;;;;;;;4.13;3.73;;;;;;;7.37;96.72;95163.91;4966668;28;20215;-81
2022/10/01 02:42:17;;;;;;;5.40;3.90;;;;;;;7.37;96.52;95156.13;4947394;28;20213;-81
2022/10/01 02:44:44;;;;;;;4.57;3.40;;;;;;;7.26;96.46;95157.09;4945320;29;20277;-80
2022/10/01 02:47:09;;;;;;;4.50;4.10;;;;;;;7.26;96.71;95158.88;4947255;29;20211;-80
2022/10/01 02:49:35;;;;;;;4.60;4.20;;;;;;;7.19;96.49;95152.63;4950448;28;20287;-80
2022/10/01 02:52:15;;;;;;;4.80;4.03;;;;;;;7.19;96.73;95150.84;4968876;28;20214;-80
2022/10/01 02:54:54;;;;;;;6.93;4.07;;;;;;;7.07;96.70;95157.13;4950407;28;20209;-80
2022/10/01 02:57:22;;;;;;;4.63;4.23;;;;;;;7.02;96.69;95159.28;4930828;29;20236;-80
2022/10/01 02:59:51;;;;;;;5.13;4.23;;;;;;;7.03;97.47;95145.41;4943434;29;20201;-79
2022/10/01 03:02:17;;;;;;;6.13;4.20;;;;;;;6.95;97.87;95153.81;4957746;28;20636;-79
2022/10/01 03:04:42;;;;;;;4.80;4.30;;;;;;;6.93;97.26;95152.34;4931935;29;20211;-80
2022/10/01 03:07:07;;;;;;;4.10;3.70;;;;;;;6.93;98.17;95157.50;4952458;29;20213;-81
2022/10/01 03:09:33;;;;;;;4.27;3.87;;;;;;;6.94;98.36;95162.53;4949992;29;20189;-79
2022/10/01 03:11:59;;;;;;;4.47;3.90;;;;;;;7.02;97.69;95160.09;4962991;28;20232;-80
2022/10/01 03:14:25;;;;;;;4.10;3.70;;;;;;;7.09;97.50;95155.22;4943630;29;20189;-80
2022/10/01 03:16:51;;;;;;;4.83;4.33;;;;;;;7.00;97.85;95151.66;4923738;29;20217;-80
2022/10/01 03:19:16;;;;;;;4.13;3.40;;;;;;;7.07;97.84;95150.19;4953403;28;20688;-79
2022/10/01 03:21:41;;;;;;;3.77;3.13;;;;;;;7.02;98.16;95143.78;4950390;28;20185;-80
2022/10/01 03:24:07;;;;;;;3.93;3.37;;;;;;;7.02;98.65;95136.03;4952581;28;20190;-79
2022/10/01 03:26:32;;;;;;;4.13;3.30;;;;;;;7.07;98.43;95137.28;4955797;28;20213;-80
2022/10/01 03:28:57;;;;;;;3.50;3.20;;;;;;;7.10;97.63;95139.56;4959781;28;20190;-79
2022/10/01 03:31:23;;;;;;;5.60;3.00;;;;;;;7.18;97.50;95149.22;4952815;29;20189;-80
2022/10/01 03:33:48;;;;;;;5.40;3.43;;;;;;;7.24;97.45;95142.69;4965261;28;20268;-80
2022/10/01 03:36:13;;;;;;;4.67;3.00;;;;;;;7.30;96.73;95127.47;4952801;28;20231;-79
2022/10/01 03:38:39;;;;;;;3.57;2.67;;;;;;;7.33;96.05;95119.44;4949718;29;20201;-79
2022/10/01 03:41:04;;;;;;;5.10;2.60;;;;;;;7.33;96.45;95119.44;4947121;29;20197;-80
2022/10/01 03:43:29;;;;;;;2.97;2.77;;;;;;;7.46;95.71;95106.22;4960335;28;20296;-79
2022/10/01 03:45:55;;;;;;;2.90;2.60;;;;;;;7.52;93.79;95105.69;4939992;29;20427;-80
2022/10/01 03:48:21;;;;;;;2.60;2.40;;;;;;;7.58;93.49;95112.03;4953370;28;20218;-79
2022/10/01 03:50:57;;;;;;;3.33;2.13;;;;;;;7.71;92.25;95104.00;4950503;28;20197;-80
2022/10/01 03:53:23;;;;;;;3.57;2.53;;;;;;;7.76;91.82;95101.78;4933638;29;20220;-79
2022/10/01 03:55:49;;;;;;;2.50;2.30;;;;;;;7.78;91.47;95103.28;4944230;29;20667;-81
2022/10/01 03:58:15;;;;;;;2.97;2.17;;;;;;;7.75;92.18;95100.16;4962796;28;20299;-81
2022/10/01 04:00:40;;;;;;;2.20;1.97;;;;;;;7.80;91.51;95103.97;4963815;28;20193;-80
2022/10/01 04:03:06;;;;;;;4.07;2.33;;;;;;;7.69;91.60;95116.25;4967147;28;20201;-80
2022/10/01 04:05:31;;;;;;;2.77;2.40;;;;;;;7.74;91.56;95101.13;4954265;29;20276;-82
2022/10/01 04:07:58;;;;;;;3.60;2.30;;;;;;;7.67;91.87;95090.53;4952964;29;20206;-80
2022/10/01 04:10:23;;;;;;;2.73;2.20;;;;;;;7.64;91.74;95086.47;4948959;29;20197;-81
2022/10/01 04:12:49;;;;;;;3.37;2.00;;;;;;;7.73;91.07;95087.38;4929283;29;20213;-82
2022/10/01 04:15:15;;;;;;;1.83;1.60;;;;;;;7.76;89.55;95094.03;4957654;28;20199;-81
2022/10/01 04:17:40;;;;;;;3.67;1.90;;;;;;;7.92;89.07;95102.00;4940192;29;20220;-81
2022/10/01 04:20:06;;;;;;;3.97;2.00;;;;;;;8.06;88.17;95098.97;4952002;28;20198;-81
2022/10/01 04:22:35;;;;;;;2.30;1.87;;;;;;;8.27;87.15;95101.31;4952565;28;20663;-81
2022/10/01 04:25:01;;;;;;;1.87;1.77;;;;;;;8.33;86.41;95099.94;4954575;28;20570;-81
2022/10/01 04:27:26;;;;;;;2.43;1.90;;;;;;;8.29;86.05;95090.81;4942655;29;20351;-81
2022/10/01 04:29:52;;;;;;;1.97;1.73;;;;;;;8.39;85.15;95086.41;4961261;28;20671;-80
2022/10/01 04:32:21;;;;;;;3.53;1.60;;;;;;;8.48;84.54;95088.97;4964143;28;20224;-80
2022/10/01 04:34:52;;;;;;;3.63;1.87;;;;;;;8.51;83.47;95093.84;4966163;28;20226;-81
2022/10/01 04:37:18;;;;;;;4.00;1.70;;;;;;;8.55;83.53;95094.34;4952442;28;20748;-81
2022/10/01 04:39:43;;;;;;;2.20;1.67;;;;;;;8.66;82.79;95098.53;4959303;28;20292;-81
2022/10/01 04:42:09;;;;;;;1.70;1.60;;;;;;;8.62;83.32;95097.19;4941799;29;20186;-82
2022/10/01 04:44:34;;;;;;;2.63;2.43;;;;;;;8.63;83.29;95089.25;4960503;28;20193;-81
2022/10/01 04:47:00;;;;;;;1.90;1.50;;;;;;;8.61;82.67;95087.78;4964000;28;20208;-80
2022/10/01 04:49:25;;;;;;;2.43;1.30;;;;;;;8.71;81.91;95091.94;4951167;29;20200;-81
2022/10/01 04:51:50;;;;;;;2.90;1.60;;;;;;;8.73;82.33;95084.03;4968141;28;20189;-81
2022/10/01 04:54:15;;;;;;;1.90;1.80;;;;;;;8.81;81.98;95084.09;4963621;28;20714;-81
2022/10/01 04:56:41;;;;;;;2.67;1.40;;;;;;;8.84;81.81;95078.66;4944440;29;20229;-81
2022/10/01 04:59:06;;;;;;;1.80;1.67;;;;;;;8.79;81.26;95086.84;4957923;28;20277;-80
2022/10/01 05:01:31;;;;;;;3.13;1.50;;;;;;;8.67;81.18;95088.03;4955181;28;20201;-81
2022/10/01 05:03:57;;;;;;;1.60;1.50;;;;;;;8.79;80.90;95080.84;4951587;28;20236;-81
2022/10/01 05:06:22;;;;;;;2.57;1.60;;;;;;;8.86;79.85;95084.47;4949408;28;20264;-80
2022/10/01 05:08:48;;;;;;;3.33;1.90;;;;;;;8.97;79.83;95071.31;4962010;28;20189;-81
2022/10/01 05:11:13;;;;;;;1.90;1.80;;;;;;;8.94;80.23;95075.97;4961650;28;20185;-81
2022/10/01 05:13:39;;;;;;;2.47;1.50;;;;;;;8.87;80.43;95077.53;4958779;28;20209;-80
2022/10/01 05:16:04;;;;;;;2.93;1.63;;;;;;;8.85;80.64;95089.81;4954277;28;20194;-80
2022/10/01 05:18:29;;;;;;;1.50;1.40;;;;;;;8.93;80.39;95067.41;4951557;28;20193;-81
2022/10/01 05:20:55;;;;;;;2.03;1.83;;;;;;;8.91;80.77;95069.28;4950024;28;20189;-81
2022/10/01 05:23:20;;;;;;;2.27;1.70;;;;;;;8.87;81.27;95067.16;4952635;28;20558;-81
2022/10/01 05:25:45;;;;;;;2.37;1.60;;;;;;;8.82;81.17;95066.78;4938950;29;20330;-81
2022/10/01 05:28:12;;;;;;;2.00;1.80;;;;;;;8.85;81.10;95061.34;4962700;28;20229;-81
2022/10/01 05:30:37;;;;;;;2.50;2.00;;;;;;;8.86;81.19;95068.13;4944808;29;20178;-81
2022/10/01 05:33:03;;;;;;;2.23;1.33;;;;;;;8.86;82.24;95065.53;4949213;29;20265;-82
2022/10/01 05:35:29;;;;;;;4.47;1.93;;;;;;;8.74;82.33;95065.75;4966550;28;20181;-80
2022/10/01 05:37:56;;;;;;;1.77;1.50;;;;;;;8.83;82.82;95051.09;4964452;28;20217;-80
2022/10/01 05:40:23;;;;;;;1.60;1.50;;;;;;;8.87;82.75;95049.84;4945516;29;20177;-80
2022/10/01 05:42:48;;;;;;;1.80;1.70;;;;;;;8.87;83.34;95046.44;4958416;28;20271;-80
2022/10/01 05:45:13;;;;;;;1.77;1.67;;;;;;;8.76;84.41;95043.13;4944148;28;20546;-80
2022/10/01 05:47:41;;;;;;;2.33;1.50;;;;;;;8.71;85.16;95037.56;4948961;29;20216;-82
2022/10/01 05:50:07;;;;;;;2.43;1.50;;;;;;;8.76;85.63;95035.38;4936650;29;20650;-80
2022/10/01 05:52:32;;;;;;;2.40;1.90;;;;;;;8.77;85.65;95037.00;4939586;29;20304;-80
2022/10/01 05:54:58;;;;;;;2.63;1.70;;;;;;;8.70;85.60;95032.56;4941559;29;20224;-80
2022/10/01 05:57:23;;;;;;;2.50;1.80;;;;;;;8.84;85.12;95010.50;4947908;29;20866;-80
2022/10/01 05:59:49;;;;;;;2.10;1.80;;;;;;;8.71;86.91;95011.69;4947490;28;20199;-80
2022/10/01 06:02:14;;;;;;;3.50;1.80;;;;;;;8.68;86.57;95004.22;4948703;29;20181;-81
2022/10/01 06:04:39;;;;;;;1.87;1.60;;;;;;;8.69;87.20;94997.28;4946676;29;20289;-81
2022/10/01 06:07:04;;;;;;;2.20;1.57;;;;;;;8.69;87.96;94987.72;4941631;29;20217;-80
2022/10/01 06:09:30;;;;;;;1.50;1.40;;;;;;;8.66;87.84;94988.03;4941465;29;20686;-80
2022/10/01 06:11:55;;;;;;;1.83;1.73;;;;;;;8.77;87.51;94990.41;4960539;28;20248;-81
2022/10/01 06:14:21;;;;;;;2.73;1.60;;;;;;;8.50;88.24;94985.31;4963435;28;20247;-81
2022/10/01 06:16:46;;;;;;;3.23;1.60;;;;;;;8.61;86.74;94974.72;4946607;29;20269;-80
2022/10/01 06:19:12;;;;;;;2.23;1.30;;;;;;;8.65;87.85;94973.44;4936282;29;20287;-81
2022/10/01 06:21:37;;;;;;;3.13;1.80;;;;;;;8.78;87.41;94978.25;4953499;28;20190;-81
2022/10/01 06:24:02;;;;;;;1.90;1.60;;;;;;;8.71;87.50;94964.28;4956827;28;20209;-80
2022/10/01 06:26:27;;;;;;;2.53;1.17;;;;;;;8.48;89.10;94962.19;4958850;28;20209;-80
2022/10/01 06:28:53;;;;;;;1.77;1.50;;;;;;;8.58;88.89;94980.22;4948654;29;20196;-80
2022/10/01 06:31:19;;;;;;;1.40;1.30;;;;;;;8.52;88.07;94983.38;4966253;28;20220;-81
2022/10/01 06:33:45;;;;;;;1.50;1.40;;;;;;;8.65;88.46;94986.41;4967568;28;20761;-80
2022/10/01 06:36:10;;;;;;;1.67;1.57;;;;;;;8.61;88.17;94985.06;4952459;29;20277;-81
2022/10/01 06:38:35;;;;;;;2.23;1.90;;;;;;;8.67;88.67;94989.66;4967035;28;20236;-80
2022/10/01 06:41:03;;;;;;;1.87;1.50;;;;;;;8.72;88.19;95000.38;4945144;29;20273;-80
2022/10/01 06:43:29;;;;;;;1.90;1.80;;;;;;;8.77;88.35;94989.59;4943887;28;20192;-81
2022/10/01 06:45:55;;;;;;;1.63;1.53;;;;;;;8.74;88.05;95000.22;4955710;28;20196;-80
2022/10/01 06:48:20;;;;;;;1.50;1.40;;;;;;;8.75;88.40;95005.28;4968775;28;20205;-80
2022/10/01 06:50:47;;;;;;;2.00;1.47;;;;;;;8.67;88.18;95002.59;4970980;28;20216;-81
2022/10/01 06:53:14;;;;;;;1.83;1.50;;;;;;;8.77;88.80;95005.13;4964017;29;20220;-81
2022/10/01 06:55:40;;;;;;;1.80;1.50;;;;;;;8.79;88.11;95001.41;4960663;28;20678;-84
2022/10/01 06:58:16;;;;;;;1.43;1.33;;;;;;;8.92;88.33;94992.44;4955317;29;20213;-85
2022/10/01 07:00:42;;;;;;;1.87;1.77;;;;;;;8.85;88.45;94991.44;4934148;29;20665;-83
2022/10/01 07:03:11;;;;;;;1.20;1.10;;;;;;;8.73;87.55;94980.47;4970910;28;20268;-82
2022/10/01 07:05:37;;;;;;;1.23;1.13;;;;;;;8.90;88.06;94978.81;4933782;28;20288;-83
2022/10/01 07:08:03;;;;;;;1.47;1.30;;;;;;;8.82;88.49;94969.22;4971516;28;20220;-82
2022/10/01 07:10:28;;;;;;;1.20;1.10;;;;;;;8.91;88.95;94967.50;4968784;28;20719;-80
2022/10/01 07:12:54;;;;;;;1.30;1.10;;;;;;;8.92;88.93;94954.41;4987797;28;20208;-81
2022/10/01 07:15:24;;;;;;;2.40;1.20;;;;;;;8.99;89.35;94941.66;4971543;28;20188;-80
2022/10/01 07:17:50;;;;;;;1.20;1.00;;;;;;;8.95;89.76;94946.34;4956901;28;20219;-80
2022/10/01 07:20:19;;;;;;;1.33;1.00;;;;;;;9.04;89.20;94944.63;4973373;28;20561;-80
2022/10/01 07:22:45;;;;;;;1.17;1.07;;;;;;;8.96;89.99;94947.97;4973663;28;20646;-80
2022/10/01 07:25:11;;;;;;;0.90;0.90;;;;;;;8.94;89.23;94939.53;4968510;28;20202;-79
2022/10/01 07:27:36;;;;;;;3.33;1.30;;;;;;;8.99;89.81;94941.66;4981558;28;20311;-81
2022/10/01 07:30:03;;;;;;;1.30;1.13;;;;;;;9.05;89.65;94947.03;4962343;28;20198;-80
2022/10/01 07:32:30;;;;;;;1.60;1.50;;;;;;;9.09;89.47;94958.72;4959350;28;20704;-79
2022/10/01 07:34:56;;;;;;;1.30;1.20;;;;;;;8.99;90.06;94967.56;4983318;28;20233;-80
2022/10/01 07:37:21;;;;;;;2.20;1.20;;;;;;;9.04;90.69;94953.19;4971560;28;20239;-81
2022/10/01 07:39:47;;;;;;;2.00;1.10;;;;;;;9.16;91.42;94964.09;4984462;28;20258;-81
2022/10/01 07:42:12;;;;;;;2.53;1.47;;;;;;;9.15;91.11;94969.44;4965627;28;20913;-80
2022/10/01 07:44:37;;;;;;;1.67;1.30;;;;;;;9.11;91.14;94968.13;4978985;28;20196;-80
2022/10/01 07:47:03;;;;;;;1.40;1.30;;;;;;;9.06;92.02;94961.63;4975225;28;20588;-80
2022/10/01 07:49:28;;;;;;;1.30;1.20;;;;;;;9.10;92.39;94962.16;4972138;28;20293;-82
2022/10/01 07:51:54;;;;;;;1.73;1.40;;;;;;;9.05;92.22;94956.59;4976783;28;20191;-80
2022/10/01 07:54:20;;;;;;;1.37;1.20;;;;;;;9.06;92.86;94951.25;4979344;28;20214;-81
2022/10/01 07:56:47;;;;;;;1.23;1.10;;;;;;;9.03;91.57;94943.00;4982296;28;20428;-80
2022/10/01 07:59:13;;;;;;;1.53;0.80;;;;;;;8.95;92.78;94961.88;4986252;28;21108;-81
2022/10/01 08:01:38;;;;;;;2.53;1.10;;;;;;;9.12;93.81;94949.03;4989073;28;20188;-81
2022/10/01 08:05:16;;;;;;;1.23;1.13;;;;;;;9.20;93.36;94955.06;4988342;28;20189;-81
2022/10/01 08:06:50;;;;;;;0.90;0.90;;;;;;;9.23;92.93;94965.13;4986687;28;20216;-80
2022/10/01 08:09:16;;;;;;;1.00;1.00;;;;;;;9.28;92.72;94978.44;4984109;28;20673;-80
2022/10/01 08:11:41;;;;;;;1.13;1.00;;;;;;;9.06;94.49;94964.22;4981420;28;20280;-80
2022/10/01 08:14:06;;;;;;;1.10;1.00;;;;;;;8.94;95.50;94980.16;4978165;28;20575;-81
2022/10/01 08:16:33;;;;;;;1.50;1.40;;;;;;;9.21;95.41;94971.44;4942468;28;20216;-81
2022/10/01 08:18:58;;;;;;;1.27;1.17;;;;;;;9.26;95.14;94984.72;4973186;28;20184;-81
2022/10/01 08:21:25;;;;;;;2.90;1.30;;;;;;;9.32;94.93;94989.31;4976252;28;20628;-81
2022/10/01 08:23:50;;;;;;;1.70;1.20;;;;;;;9.42;94.64;94994.38;4978918;28;20645;-81
2022/10/01 08:26:15;;;;;;;0.90;0.90;;;;;;;9.11;96.86;94984.50;4982510;28;20187;-81
2022/10/01 08:28:41;;;;;;;1.43;0.93;;;;;;;9.39;96.01;94984.31;4984652;28;20202;-82
2022/10/01 08:31:07;;;;;;;1.10;0.80;;;;;;;9.21;96.58;95000.75;4988503;28;20203;-81
2022/10/01 08:33:33;;;;;;;0.90;0.90;;;;;;;9.41;96.33;94998.75;4974225;28;20719;-81
2022/10/01 08:36:06;;;;;;;0.97;0.97;;;;;;;9.56;96.37;95002.41;4981096;28;20184;-81
2022/10/01 08:38:32;;;;;;;1.27;0.97;;;;;;;9.60;96.39;95013.25;4973698;28;20202;-80
2022/10/01 08:40:59;;;;;;;1.10;1.00;;;;;;;9.68;96.12;95028.84;4979481;28;20208;-81
2022/10/01 08:43:38;;;;;;;0.70;0.70;;;;;;;9.69;95.62;95024.47;4968346;28;20196;-80
2022/10/01 08:46:06;;;;;;;0.90;0.90;;;;;;;9.61;95.66;95022.66;4974238;28;20214;-81
2022/10/01 08:48:46;;;;;;;1.93;1.27;;;;;;;10.00;94.44;95029.97;4956723;28;20279;-79
2022/10/01 08:51:38;;;;;;;2.50;1.40;;;;;;;10.07;94.66;95036.13;4989123;28;20432;-81
2022/10/01 08:54:15;;;;;;;2.00;1.80;;;;;;;10.05;94.43;95035.50;4983692;28;20207;-81
2022/10/01 08:56:45;;;;;;;1.00;0.77;;;;;;;9.92;94.85;95036.75;4979326;28;20208;-81
2022/10/01 08:59:39;;;;;;;1.50;1.40;;;;;;;10.12;94.26;95034.72;4970844;28;20216;-82
2022/10/01 09:02:30;;;;;;;1.70;1.10;;;;;;;10.15;94.35;95038.75;4956361;28;20657;-81
2022/10/01 09:04:58;;;;;;;1.90;0.67;;;;;;;10.03;94.72;95035.66;4988706;28;20198;-81
2022/10/01 09:07:50;;;;;;;1.10;0.70;;;;;;;10.15;94.53;95030.97;4971985;28;20616;-81
2022/10/01 09:11:03;;;;;;;0.50;0.50;;;;;;;10.03;95.59;95037.44;4974601;28;20224;-81
2022/10/01 09:14:01;;;;;;;0.60;0.60;;;;;;;10.07;95.81;95034.38;4938503;29;20213;-82
2022/10/01 09:17:01;;;;;;;0.43;0.43;;;;;;;9.92;96.46;95031.56;4927670;29;20624;-81
2022/10/01 09:19:35;;;;;;;1.43;0.57;;;;;;;9.82;96.83;95030.06;4948568;28;20248;-79
2022/10/01 09:22:18;;;;;;;0.70;0.70;;;;;;;9.96;96.89;95032.06;4934197;29;20204;-81
2022/10/01 09:25:12;;;;;;;0.70;0.70;;;;;;;9.80;97.05;95042.34;4912633;29;20201;-77
2022/10/01 09:27:38;;;;;;;2.07;0.70;;;;;;;10.04;96.33;95034.69;4934191;29;20325;-81
2022/10/01 09:30:09;;;;;;;0.50;0.50;;;;;;;9.89;97.30;95039.66;4954794;29;20241;-80
2022/10/01 09:32:59;;;;;;;0.50;0.50;;;;;;;10.14;96.17;95048.34;4922125;29;20221;-81
2022/10/01 09:35:27;;;;;;;1.07;0.70;;;;;;;10.12;96.62;95047.69;4950937;29;20202;-82
2022/10/01 09:37:57;;;;;;;0.63;0.60;;;;;;;10.02;97.38;95059.16;4951006;29;20610;-81
2022/10/01 09:40:48;;;;;;;0.73;0.73;;;;;;;10.27;97.12;95058.31;4963716;28;20221;-82
2022/10/01 09:43:17;;;;;;;1.90;0.90;;;;;;;10.26;97.26;95061.06;4956513;28;20207;-82
2022/10/01 09:45:43;;;;;;;0.67;0.67;;;;;;;10.30;97.30;95052.81;4993588;28;20198;-82
2022/10/01 09:48:25;;;;;;;0.50;0.50;;;;;;;10.15;98.01;95056.94;4989571;28;20220;-81
2022/10/01 09:50:57;;;;;;;0.50;0.50;;;;;;;10.15;97.55;95052.56;4977698;28;20206;-81
2022/10/01 09:53:36;;;;;;;0.50;0.50;;;;;;;10.41;97.52;95049.09;4987904;28;20213;-81
2022/10/01 09:56:11;;;;;;;0.50;0.50;;;;;;;10.37;97.85;95047.81;4974704;28;20558;-81
2022/10/01 09:58:38;;;;;;;0.53;0.53;;;;;;;10.37;97.70;95040.81;4962732;28;20674;-81
2022/10/01 10:01:14;;;;;;;1.20;0.63;;;;;;;10.37;98.20;95046.00;4993693;28;20200;-81
2022/10/01 10:03:39;;;;;;;0.40;0.40;;;;;;;10.49;96.21;95049.13;4977558;28;20202;-82
2022/10/01 10:06:05;;;;;;;0.97;0.97;;;;;;;10.65;95.35;95048.34;4990671;28;20196;-81
2022/10/01 10:08:35;;;;;;;0.43;0.40;;;;;;;10.58;95.63;95042.16;4989142;28;20681;-79
2022/10/01 10:11:02;;;;;;;0.70;0.70;;;;;;;10.69;96.18;95037.50;4983288;28;20220;-80
2022/10/01 10:13:49;;;;;;;0.30;0.30;;;;;;;10.82;96.97;95046.56;4980307;28;20686;-78
2022/10/01 10:16:20;;;;;;;0.50;0.50;;;;;;;10.62;96.73;95049.47;4990864;28;20184;-78
2022/10/01 10:18:50;;;;;;;1.00;0.33;;;;;;;10.86;95.78;95029.69;4990920;28;20192;-78
2022/10/01 10:21:20;;;;;;;0.50;0.50;;;;;;;10.67;96.05;95033.41;4975690;28;20175;-79
2022/10/01 10:24:00;;;;;;;0.60;0.60;;;;;;;10.90;96.81;95041.41;4985768;28;20202;-80
2022/10/01 10:26:27;;;;;;;0.43;0.40;;;;;;;10.80;96.36;95046.75;4983900;28;20767;-78
2022/10/01 10:28:53;;;;;;;0.33;0.33;;;;;;;10.92;96.70;95047.22;4980043;28;20203;-79
2022/10/01 10:31:20;;;;;;;1.87;0.70;;;;;;;11.15;96.67;95044.81;4972393;28;20607;-80
2022/10/01 10:33:59;;;;;;;2.33;1.93;;;;;;;11.58;95.63;95044.44;4990962;28;20211;-79
2022/10/01 10:36:29;;;;;;;1.27;1.17;;;;;;;11.57;93.30;95062.78;4988628;28;20222;-80
2022/10/01 10:38:55;;;;;;;1.27;1.13;;;;;;;12.17;91.17;95057.09;4967508;28;20307;-78
2022/10/01 10:41:25;;;;;;;0.67;0.33;;;;;;;11.78;92.78;95031.84;4949352;28;20196;-79
2022/10/01 10:43:52;;;;;;;1.30;1.07;;;;;;;12.47;91.12;95034.69;4978910;28;20194;-80
2022/10/01 10:46:33;;;;;;;0.40;0.40;;;;;;;12.93;87.68;95039.94;4974001;28;20666;-79
2022/10/01 10:49:05;;;;;;;0.53;0.30;;;;;;;12.98;86.96;95027.16;4963775;28;20188;-80
2022/10/01 10:51:50;;;;;;;0.50;0.50;;;;;;;12.76;87.33;95037.44;4962270;28;20188;-83
2022/10/01 10:54:39;;;;;;;1.40;0.70;;;;;;;12.47;88.43;95039.91;4973510;28;20326;-79
2022/10/01 10:57:33;;;;;;;0.60;0.60;;;;;;;12.53;89.79;95046.19;4973308;28;20219;-79
2022/10/01 11:00:18;;;;;;;1.93;1.20;;;;;;;12.46;89.82;95039.09;4993026;28;20184;-79
2022/10/01 11:02:56;;;;;;;0.60;0.60;;;;;;;12.57;89.41;95045.69;4992189;28;20215;-78
2022/10/01 11:05:24;;;;;;;0.87;0.50;;;;;;;12.40;89.30;95046.78;4972360;28;20188;-78
2022/10/01 11:07:53;;;;;;;0.63;0.50;;;;;;;12.24;90.07;95039.03;4969642;28;20208;-78
2022/10/01 11:10:24;;;;;;;0.80;0.50;;;;;;;12.12;89.51;95031.59;4968367;28;20196;-78
2022/10/01 11:13:05;;;;;;;1.73;0.50;;;;;;;12.26;90.39;95043.06;4971439;28;20212;-79
2022/10/01 11:15:44;;;;;;;0.50;0.50;;;;;;;12.35;90.98;95033.44;4988355;28;20282;-79
2022/10/01 11:18:28;;;;;;;0.37;0.37;;;;;;;11.94;92.19;95036.22;4987830;28;20219;-80
2022/10/01 11:21:10;;;;;;;0.67;0.67;;;;;;;12.15;92.81;95052.06;4971292;28;20191;-78
2022/10/01 11:23:48;;;;;;;0.43;0.37;;;;;;;11.80;93.38;95039.53;4983635;28;20239;-79
2022/10/01 11:26:22;;;;;;;0.97;0.57;;;;;;;11.97;93.21;95046.28;4980224;28;20230;-79
2022/10/01 11:29:08;;;;;;;0.60;0.60;;;;;;;11.99;93.58;95048.72;4963486;28;20297;-79
2022/10/01 11:31:38;;;;;;;0.70;0.63;;;;;;;11.65;94.40;95034.16;4972649;28;20310;-79
2022/10/01 11:34:06;;;;;;;0.40;0.40;;;;;;;11.63;93.99;95047.34;4973390;28;20208;-80
2022/10/01 11:37:01;;;;;;;0.37;0.30;;;;;;;11.76;93.52;95053.81;4987410;28;20208;-79
2022/10/01 11:39:30;;;;;;;1.43;1.00;;;;;;;11.74;92.51;95047.94;4972524;28;20303;-80
2022/10/01 11:42:01;;;;;;;0.77;0.50;;;;;;;11.80;92.80;95052.53;4970216;28;20204;-80
2022/10/01 11:44:32;;;;;;;0.83;0.40;;;;;;;12.05;91.57;95046.28;4978844;28;20192;-79
2022/10/01 11:47:19;;;;;;;1.67;1.03;;;;;;;12.25;89.89;95051.06;4957662;28;20604;-78
2022/10/01 11:49:58;;;;;;;2.30;0.80;;;;;;;12.10;89.46;95049.19;4987992;28;20183;-79
2022/10/01 11:52:41;;;;;;;2.80;2.60;;;;;;;12.17;88.51;95054.50;4991036;28;20218;-80